Time;durP1;ratioP1;P1;durP2;ratioP2;P2;SDS_P1;SDS_P2;PMS_P1;PMS_P2;Temp;Humidity;BMP_temperature;BMP_pressure;BME280_temperature;BME280_humidity;BME280_pressure;Samples;Min_cycle;Max_cycle;Signal;HPM_P1;HPM_P2
2023/03/02 00:00:46;;;;;;;5.35;3.30;;;15.40;99.90;;;;;;4999241;28;20073;-65
2023/03/02 00:03:16;;;;;;;4.63;3.00;;;15.40;99.90;;;;;;4998674;28;20061;-65
2023/03/02 00:05:45;;;;;;;4.47;3.28;;;15.40;99.90;;;;;;4999248;28;20443;-64
2023/03/02 00:08:15;;;;;;;4.45;2.88;;;15.40;99.90;;;;;;4997617;28;20173;-65
2023/03/02 00:10:41;;;;;;;4.13;2.80;;;15.40;99.90;;;;;;4999058;28;20030;-64
2023/03/02 00:13:07;;;;;;;3.97;2.90;;;15.40;99.90;;;;;;4998524;28;20041;-63
2023/03/02 00:15:33;;;;;;;5.20;2.90;;;15.40;99.90;;;;;;4997781;28;20426;-62
2023/03/02 00:17:59;;;;;;;4.35;2.95;;;15.40;99.90;;;;;;4998689;28;20030;-62
2023/03/02 00:20:25;;;;;;;4.30;2.90;;;15.40;99.90;;;;;;4998857;28;20030;-63
2023/03/02 00:22:51;;;;;;;5.57;2.90;;;15.40;99.90;;;;;;4998070;28;20061;-63
2023/03/02 00:25:17;;;;;;;5.03;2.60;;;15.40;99.90;;;;;;4997902;28;20043;-65
2023/03/02 00:27:43;;;;;;;3.80;2.42;;;15.40;99.90;;;;;;4998673;28;20041;-66
2023/03/02 00:30:14;;;;;;;5.15;2.78;;;15.40;99.90;;;;;;4998292;28;20053;-66
2023/03/02 00:32:40;;;;;;;4.40;3.13;;;15.40;99.90;;;;;;4998574;28;20041;-66
2023/03/02 00:35:07;;;;;;;3.55;2.70;;;15.40;99.90;;;;;;4998127;28;20070;-66
2023/03/02 00:37:35;;;;;;;3.33;2.60;;;15.40;99.90;;;;;;4997018;28;20353;-66
2023/03/02 00:40:03;;;;;;;3.85;2.42;;;15.40;99.90;;;;;;4997304;28;20228;-66
2023/03/02 00:42:29;;;;;;;4.00;2.40;;;15.40;99.90;;;;;;4998575;28;20342;-65
2023/03/02 00:44:58;;;;;;;3.92;2.42;;;15.40;99.90;;;;;;5013144;28;20050;-66
2023/03/02 00:47:24;;;;;;;3.85;2.50;;;15.40;99.90;;;;;;4998322;28;20030;-64
2023/03/02 00:49:49;;;;;;;3.72;2.40;;;15.40;99.90;;;;;;4997254;28;20034;-65
2023/03/02 00:52:16;;;;;;;4.93;2.40;;;15.40;99.90;;;;;;4996488;28;20101;-65
2023/03/02 00:54:42;;;;;;;3.92;2.30;;;15.30;99.90;;;;;;4997149;28;20076;-65
2023/03/02 00:57:08;;;;;;;3.75;2.50;;;15.30;99.90;;;;;;4997842;28;20030;-65
2023/03/02 00:59:39;;;;;;;3.58;2.10;;;15.30;99.90;;;;;;5013373;28;20113;-65
2023/03/02 01:02:30;;;;;;;4.13;2.22;;;15.30;99.90;;;;;;5001246;28;20453;-64
2023/03/02 01:04:56;;;;;;;3.55;2.22;;;15.30;99.90;;;;;;4976184;28;20034;-65
2023/03/02 01:07:27;;;;;;;3.20;2.20;;;15.30;99.90;;;;;;4961134;28;20110;-64
2023/03/02 01:09:53;;;;;;;3.40;1.92;;;15.30;99.90;;;;;;4976482;28;20150;-65
2023/03/02 01:12:19;;;;;;;3.75;2.50;;;15.30;99.90;;;;;;4978272;28;20122;-64
2023/03/02 01:14:47;;;;;;;5.70;2.15;;;15.30;99.90;;;;;;4978279;28;20038;-64
2023/03/02 01:17:14;;;;;;;4.13;2.20;;;15.30;99.90;;;;;;4977980;28;20038;-64
2023/03/02 01:19:41;;;;;;;3.10;2.33;;;15.30;99.90;;;;;;4978176;28;20027;-64
2023/03/02 01:22:08;;;;;;;3.65;2.13;;;15.30;99.90;;;;;;4977618;28;20114;-65
2023/03/02 01:24:34;;;;;;;3.85;2.40;;;15.30;99.90;;;;;;4992351;28;20476;-65
2023/03/02 01:27:00;;;;;;;4.60;2.20;;;15.30;99.90;;;;;;4993142;28;20041;-66
2023/03/02 01:29:26;;;;;;;3.60;2.10;;;15.30;99.90;;;;;;4977950;28;20035;-65
2023/03/02 01:31:52;;;;;;;3.85;2.10;;;15.20;99.90;;;;;;4977064;28;20068;-66
2023/03/02 01:34:18;;;;;;;3.33;2.08;;;15.30;99.90;;;;;;4977499;28;20042;-66
2023/03/02 01:36:44;;;;;;;2.92;1.80;;;15.20;99.90;;;;;;4977030;28;20109;-66
2023/03/02 01:39:14;;;;;;;3.40;1.85;;;15.20;99.90;;;;;;4991486;28;20414;-66
2023/03/02 01:41:45;;;;;;;2.65;1.67;;;15.20;99.90;;;;;;4976801;28;20073;-65
2023/03/02 01:44:42;;;;;;;2.92;1.80;;;15.30;99.90;;;;;;4992368;28;20450;-64
2023/03/02 01:47:19;;;;;;;2.75;1.70;;;15.20;99.90;;;;;;4977431;28;20070;-65
2023/03/02 01:49:58;;;;;;;3.05;1.73;;;15.20;99.90;;;;;;4992871;28;20445;-64
2023/03/02 01:52:30;;;;;;;3.92;1.60;;;15.20;99.90;;;;;;4992568;28;20042;-65
2023/03/02 01:55:00;;;;;;;4.05;1.75;;;15.20;99.90;;;;;;4991820;28;20422;-67
2023/03/02 01:57:31;;;;;;;4.00;1.83;;;15.20;99.90;;;;;;4977495;28;20037;-65
2023/03/02 02:00:09;;;;;;;2.63;1.58;;;15.20;99.90;;;;;;4992515;28;20061;-65
2023/03/02 02:02:40;;;;;;;4.50;1.95;;;15.20;99.90;;;;;;4977253;28;20054;-65
2023/03/02 02:05:14;;;;;;;2.88;1.65;;;15.20;99.90;;;;;;4992314;28;20035;-65
2023/03/02 02:07:41;;;;;;;4.13;1.63;;;15.20;99.90;;;;;;4976080;28;20119;-65
2023/03/02 02:10:08;;;;;;;5.57;1.58;;;15.20;99.90;;;;;;4991562;28;20089;-65
2023/03/02 02:12:34;;;;;;;2.83;1.40;;;15.10;99.90;;;;;;4976378;28;20035;-65
2023/03/02 02:15:04;;;;;;;2.88;1.50;;;15.20;99.90;;;;;;4976872;28;20085;-64
2023/03/02 02:17:30;;;;;;;4.20;1.70;;;15.20;99.90;;;;;;4977420;28;20062;-64
2023/03/02 02:20:27;;;;;;;3.40;1.40;;;15.10;99.90;;;;;;4977002;28;20034;-64
2023/03/02 02:23:16;;;;;;;3.67;1.35;;;15.20;99.90;;;;;;4991835;28;20030;-65
2023/03/02 02:25:56;;;;;;;2.05;1.40;;;15.20;99.90;;;;;;4977181;28;20031;-64
2023/03/02 02:28:56;;;;;;;2.33;1.40;;;15.10;99.90;;;;;;4975753;28;20034;-64
2023/03/02 02:31:39;;;;;;;2.72;1.58;;;15.20;99.90;;;;;;4976034;28;20082;-64
2023/03/02 02:34:14;;;;;;;3.40;1.48;;;15.20;99.90;;;;;;4975622;28;20042;-65
2023/03/02 02:36:46;;;;;;;3.75;1.42;;;15.10;99.90;;;;;;4977079;28;20174;-64
2023/03/02 02:39:27;;;;;;;5.05;1.55;;;15.10;99.90;;;;;;4990473;28;20431;-64
2023/03/02 02:41:59;;;;;;;2.60;1.50;;;15.10;99.90;;;;;;4976994;28;20109;-64
2023/03/02 02:44:26;;;;;;;4.53;1.45;;;15.10;99.90;;;;;;4991789;28;20054;-64
2023/03/02 02:46:53;;;;;;;5.70;1.45;;;15.10;99.90;;;;;;4992088;28;20039;-65
2023/03/02 02:49:21;;;;;;;5.07;1.40;;;15.10;99.90;;;;;;4991660;28;20041;-66
2023/03/02 02:51:47;;;;;;;3.28;1.30;;;15.10;99.90;;;;;;4992232;28;20030;-66
2023/03/02 02:54:17;;;;;;;5.10;1.65;;;15.10;99.90;;;;;;4975227;28;20509;-65
2023/03/02 02:56:46;;;;;;;3.55;1.40;;;15.10;99.90;;;;;;4992050;28;20058;-65
2023/03/02 02:59:18;;;;;;;2.60;1.40;;;15.10;99.90;;;;;;4991623;28;20034;-65
2023/03/02 03:01:46;;;;;;;3.38;1.60;;;15.10;99.90;;;;;;4981129;28;20019;-64
2023/03/02 03:04:20;;;;;;;4.40;1.50;;;15.10;99.90;;;;;;5011148;28;20034;-64
2023/03/02 03:07:02;;;;;;;4.65;1.50;;;15.10;99.90;;;;;;4995281;28;20375;-64
2023/03/02 03:09:29;;;;;;;3.15;1.30;;;15.10;99.90;;;;;;5010587;28;20026;-64
2023/03/02 03:12:00;;;;;;;2.55;1.63;;;15.10;99.90;;;;;;4995087;28;20125;-64
2023/03/02 03:14:32;;;;;;;3.85;1.60;;;15.10;99.90;;;;;;4995671;28;20041;-64
2023/03/02 03:16:58;;;;;;;3.60;1.50;;;15.00;99.90;;;;;;4996361;28;20034;-65
2023/03/02 03:19:30;;;;;;;3.45;1.60;;;15.00;99.90;;;;;;5011020;28;20057;-65
2023/03/02 03:21:59;;;;;;;3.85;1.27;;;15.00;99.90;;;;;;4995173;28;20037;-64
2023/03/02 03:24:29;;;;;;;2.65;1.33;;;15.00;99.90;;;;;;4977837;28;20038;-64
2023/03/02 03:26:57;;;;;;;2.25;1.30;;;15.00;99.90;;;;;;4995675;28;20041;-64
2023/03/02 03:29:25;;;;;;;4.68;1.33;;;15.00;99.90;;;;;;4998359;28;20030;-64
2023/03/02 03:31:56;;;;;;;3.00;1.50;;;15.00;99.90;;;;;;4999697;28;20450;-65
2023/03/02 03:34:23;;;;;;;2.42;1.42;;;15.00;99.90;;;;;;4999259;28;20101;-64
2023/03/02 03:36:49;;;;;;;2.28;1.52;;;15.00;99.90;;;;;;4998629;28;20066;-65
2023/03/02 03:39:16;;;;;;;2.72;1.63;;;14.90;99.90;;;;;;4997092;28;20061;-65
2023/03/02 03:41:43;;;;;;;3.67;1.50;;;15.00;99.90;;;;;;4999640;28;20026;-64
2023/03/02 03:44:10;;;;;;;3.08;1.60;;;15.00;99.90;;;;;;4997806;28;20042;-64
2023/03/02 03:46:37;;;;;;;2.33;1.50;;;15.00;99.90;;;;;;4999283;28;20425;-65
2023/03/02 03:49:03;;;;;;;3.08;1.80;;;15.00;99.90;;;;;;5014655;28;20465;-65
2023/03/02 03:51:33;;;;;;;2.92;1.60;;;15.00;99.90;;;;;;5014607;28;20031;-65
2023/03/02 03:54:01;;;;;;;4.13;2.00;;;14.90;99.90;;;;;;4996898;28;20429;-66
2023/03/02 03:56:37;;;;;;;3.63;1.65;;;14.90;99.90;;;;;;5014670;28;20417;-65
2023/03/02 03:59:05;;;;;;;3.13;1.73;;;14.90;99.90;;;;;;4998107;28;20022;-65
2023/03/02 04:01:38;;;;;;;2.55;1.65;;;15.00;99.90;;;;;;4997997;28;20026;-65
2023/03/02 04:04:07;;;;;;;2.75;1.85;;;14.90;99.90;;;;;;5014252;28;20029;-66
2023/03/02 04:06:33;;;;;;;4.50;2.03;;;15.00;99.90;;;;;;4999141;28;20034;-65
2023/03/02 04:09:03;;;;;;;2.95;1.83;;;14.90;99.90;;;;;;4996853;28;20034;-65
2023/03/02 04:11:36;;;;;;;2.42;1.63;;;14.90;99.90;;;;;;5013934;28;20315;-65
2023/03/02 04:14:04;;;;;;;3.88;1.80;;;14.90;99.90;;;;;;4981552;28;20030;-65
2023/03/02 04:16:31;;;;;;;3.80;2.00;;;14.90;99.90;;;;;;5014062;28;20389;-65
2023/03/02 04:18:58;;;;;;;3.40;1.90;;;14.90;99.90;;;;;;5014056;28;20034;-65
2023/03/02 04:21:24;;;;;;;2.65;1.90;;;14.90;99.90;;;;;;4998652;28;20031;-65
2023/03/02 04:23:51;;;;;;;3.45;2.10;;;14.90;99.90;;;;;;5012795;28;20077;-65
2023/03/02 04:26:18;;;;;;;3.72;2.00;;;14.90;99.90;;;;;;4997506;28;20038;-66
2023/03/02 04:28:44;;;;;;;4.85;2.17;;;14.90;99.90;;;;;;5013789;28;20062;-65
2023/03/02 04:31:10;;;;;;;3.22;1.90;;;14.90;99.90;;;;;;4997458;28;20041;-65
2023/03/02 04:33:37;;;;;;;3.78;2.40;;;14.90;99.90;;;;;;5013664;28;20109;-65
2023/03/02 04:36:04;;;;;;;3.55;2.40;;;14.80;99.90;;;;;;4997592;28;20387;-65
2023/03/02 04:38:30;;;;;;;4.97;2.13;;;14.90;99.90;;;;;;4996022;28;20410;-65
2023/03/02 04:40:57;;;;;;;4.45;2.55;;;14.80;99.90;;;;;;4997592;28;20109;-65
2023/03/02 04:43:24;;;;;;;3.40;2.17;;;14.90;99.90;;;;;;4997849;28;20036;-66
2023/03/02 04:45:52;;;;;;;5.45;2.55;;;14.80;99.90;;;;;;4998183;28;20050;-65
2023/03/02 04:48:20;;;;;;;3.40;2.13;;;14.80;99.90;;;;;;4996843;28;20373;-65
2023/03/02 04:50:45;;;;;;;4.55;2.45;;;14.80;99.90;;;;;;4998396;28;20038;-65
2023/03/02 04:53:11;;;;;;;4.63;2.67;;;14.80;99.90;;;;;;4996895;28;20034;-65
2023/03/02 04:55:39;;;;;;;4.65;2.60;;;14.80;99.90;;;;;;4998137;28;20414;-64
2023/03/02 04:58:05;;;;;;;3.75;2.28;;;14.80;99.90;;;;;;4997952;28;20029;-64
2023/03/02 05:00:33;;;;;;;3.90;2.53;;;14.80;99.90;;;;;;4997742;28;20116;-65
2023/03/02 05:03:00;;;;;;;6.85;2.50;;;14.80;99.90;;;;;;5012753;28;20038;-66
2023/03/02 05:05:27;;;;;;;5.80;2.60;;;14.80;99.90;;;;;;5013070;28;20441;-63
2023/03/02 05:07:53;;;;;;;4.80;2.53;;;14.80;99.90;;;;;;4997765;28;20039;-65
2023/03/02 05:10:21;;;;;;;4.20;2.60;;;14.80;99.90;;;;;;4996965;28;20066;-65
2023/03/02 05:12:53;;;;;;;4.18;2.72;;;14.80;99.90;;;;;;4997816;28;20168;-64
2023/03/02 05:15:24;;;;;;;4.20;2.70;;;14.80;99.90;;;;;;4997573;28;20318;-64
2023/03/02 05:17:50;;;;;;;6.53;3.13;;;14.80;99.90;;;;;;4997741;28;20057;-65
2023/03/02 05:20:16;;;;;;;4.45;2.47;;;14.80;99.90;;;;;;4997108;28;20423;-64
2023/03/02 05:22:42;;;;;;;4.78;2.70;;;14.80;99.90;;;;;;4997112;28;20109;-64
2023/03/02 05:25:09;;;;;;;4.22;2.80;;;14.80;99.90;;;;;;4995978;28;20117;-64
2023/03/02 05:27:35;;;;;;;4.57;3.05;;;14.80;99.90;;;;;;4997320;28;20438;-64
2023/03/02 05:30:03;;;;;;;5.88;3.50;;;14.80;99.90;;;;;;4996484;28;20037;-64
2023/03/02 05:32:29;;;;;;;5.25;3.03;;;14.80;99.90;;;;;;4997163;28;20030;-64
2023/03/02 05:34:55;;;;;;;5.68;2.97;;;14.70;99.90;;;;;;4997235;28;20088;-64
2023/03/02 05:37:21;;;;;;;6.05;3.45;;;14.70;99.90;;;;;;4996768;28;20039;-65
2023/03/02 05:39:47;;;;;;;6.38;3.28;;;14.70;99.90;;;;;;5011871;28;20034;-64
2023/03/02 05:42:13;;;;;;;5.10;3.13;;;14.70;99.90;;;;;;4996979;28;20026;-64
2023/03/02 05:44:39;;;;;;;5.47;3.40;;;14.70;99.90;;;;;;4996966;28;20117;-64
2023/03/02 05:47:05;;;;;;;4.90;3.15;;;14.70;99.90;;;;;;4997117;28;20038;-65
2023/03/02 05:49:31;;;;;;;5.72;3.67;;;14.70;99.90;;;;;;4996351;28;20509;-64
2023/03/02 05:51:57;;;;;;;6.57;3.70;;;14.70;99.90;;;;;;4997209;28;20108;-65
2023/03/02 05:54:22;;;;;;;6.20;3.88;;;14.70;99.90;;;;;;4995461;28;20030;-66
2023/03/02 05:56:48;;;;;;;5.03;3.63;;;14.70;99.90;;;;;;4997447;28;20472;-66
2023/03/02 05:59:15;;;;;;;5.65;4.10;;;14.70;99.90;;;;;;4996307;28;20054;-66
2023/03/02 06:01:41;;;;;;;4.78;2.88;;;14.70;99.90;;;;;;4996745;28;20101;-66
2023/03/02 06:04:07;;;;;;;5.93;2.85;;;14.70;99.90;;;;;;4996755;28;20125;-65
2023/03/02 06:06:33;;;;;;;4.07;2.58;;;14.70;99.90;;;;;;4996663;28;20042;-65
2023/03/02 06:08:59;;;;;;;4.55;2.42;;;14.70;99.90;;;;;;4995506;28;20038;-65
2023/03/02 06:11:25;;;;;;;5.63;2.72;;;14.70;99.90;;;;;;4995543;28;20419;-65
2023/03/02 06:13:51;;;;;;;4.30;2.55;;;14.70;99.90;;;;;;5012026;28;20084;-65
2023/03/02 06:16:16;;;;;;;3.80;2.35;;;14.70;99.90;;;;;;4996534;28;20034;-65
2023/03/02 06:18:42;;;;;;;4.40;2.80;;;14.70;99.90;;;;;;4996471;28;20035;-65
2023/03/02 06:21:08;;;;;;;4.13;2.47;;;14.70;99.90;;;;;;4995479;28;20076;-65
2023/03/02 06:23:34;;;;;;;3.70;2.20;;;14.70;99.90;;;;;;4995016;28;20031;-65
2023/03/02 06:26:08;;;;;;;4.93;2.70;;;14.70;99.90;;;;;;4996576;28;20041;-66
2023/03/02 06:28:34;;;;;;;7.60;2.38;;;14.70;99.90;;;;;;4996066;28;20271;-67
2023/03/02 06:31:00;;;;;;;5.53;2.38;;;14.70;99.90;;;;;;4996630;28;20469;-66
2023/03/02 06:33:25;;;;;;;4.55;2.53;;;14.70;99.90;;;;;;4995962;28;20049;-66
2023/03/02 06:35:51;;;;;;;5.13;2.45;;;14.70;99.90;;;;;;4996472;28;20121;-66
2023/03/02 06:38:17;;;;;;;9.07;2.30;;;14.70;99.90;;;;;;4994886;28;20030;-66
2023/03/02 06:40:43;;;;;;;5.38;2.50;;;14.70;99.90;;;;;;4996434;28;20038;-66
2023/03/02 06:43:09;;;;;;;7.22;2.42;;;14.70;99.90;;;;;;4996053;28;20122;-64
2023/03/02 06:45:36;;;;;;;6.28;2.40;;;14.70;99.90;;;;;;4995949;28;20094;-64
2023/03/02 06:48:03;;;;;;;5.13;2.42;;;14.70;99.90;;;;;;4996226;28;20085;-68
2023/03/02 06:50:29;;;;;;;3.95;2.13;;;14.70;99.90;;;;;;4995068;28;20121;-66
2023/03/02 06:52:55;;;;;;;5.95;2.20;;;14.70;99.90;;;;;;4994470;28;20038;-67
2023/03/02 06:55:21;;;;;;;4.05;2.33;;;14.70;99.90;;;;;;4995717;28;20031;-66
2023/03/02 06:57:47;;;;;;;5.95;2.28;;;14.70;99.90;;;;;;4996218;28;20022;-66
2023/03/02 07:00:16;;;;;;;6.30;2.50;;;14.70;99.90;;;;;;5011360;28;20058;-66
2023/03/02 07:02:43;;;;;;;6.75;2.60;;;14.70;99.90;;;;;;4977456;28;20405;-66
2023/03/02 07:05:10;;;;;;;5.60;2.80;;;14.70;99.90;;;;;;5012808;28;20034;-66
2023/03/02 07:07:36;;;;;;;11.98;2.70;;;14.70;99.90;;;;;;4996986;28;20038;-66
2023/03/02 07:10:03;;;;;;;6.40;2.90;;;14.70;99.90;;;;;;4996805;28;20062;-66
2023/03/02 07:12:29;;;;;;;7.22;2.78;;;14.70;99.90;;;;;;4996522;28;20052;-66
2023/03/02 07:14:55;;;;;;;5.95;3.20;;;14.70;99.90;;;;;;4996396;28;20039;-66
2023/03/02 07:17:20;;;;;;;8.65;2.97;;;14.70;99.90;;;;;;4997161;28;20377;-67
2023/03/02 07:19:46;;;;;;;5.53;3.17;;;14.70;99.90;;;;;;4997505;28;20066;-67
2023/03/02 07:22:12;;;;;;;5.35;3.08;;;14.70;99.90;;;;;;5012600;28;20374;-67
2023/03/02 07:24:38;;;;;;;5.05;3.20;;;14.70;99.90;;;;;;4996512;28;20034;-67
2023/03/02 07:27:04;;;;;;;14.05;3.50;;;14.70;99.90;;;;;;4997234;28;20034;-68
2023/03/02 07:29:30;;;;;;;11.82;3.30;;;14.70;99.90;;;;;;4996944;28;20072;-67
2023/03/02 07:31:58;;;;;;;5.50;3.22;;;14.80;99.90;;;;;;4997254;28;20429;-67
2023/03/02 07:34:24;;;;;;;5.95;3.72;;;14.80;99.90;;;;;;4996844;28;20038;-67
2023/03/02 07:36:51;;;;;;;6.75;3.53;;;14.70;99.90;;;;;;4997304;28;20054;-67
2023/03/02 07:39:17;;;;;;;6.40;3.50;;;14.80;99.90;;;;;;4994627;28;20045;-67
2023/03/02 07:41:43;;;;;;;8.90;4.05;;;14.70;99.90;;;;;;4995815;28;20041;-66
2023/03/02 07:44:12;;;;;;;6.15;4.10;;;14.80;99.90;;;;;;4993710;28;20030;-66
2023/03/02 07:46:38;;;;;;;6.20;3.58;;;14.80;99.90;;;;;;4996757;28;20137;-66
2023/03/02 07:49:04;;;;;;;6.50;3.88;;;14.70;99.90;;;;;;4997313;28;20105;-67
2023/03/02 07:51:30;;;;;;;6.22;3.72;;;14.80;99.90;;;;;;5011586;28;20058;-66
2023/03/02 07:53:56;;;;;;;5.70;3.80;;;14.70;99.90;;;;;;5010806;28;20030;-66
2023/03/02 07:56:21;;;;;;;5.78;4.00;;;14.80;99.90;;;;;;5011823;28;20034;-67
2023/03/02 07:58:47;;;;;;;10.40;4.03;;;14.70;99.90;;;;;;5011069;28;20054;-66
2023/03/02 08:01:13;;;;;;;6.68;3.55;;;14.80;99.90;;;;;;4989834;28;20033;-66
2023/03/02 08:03:39;;;;;;;6.30;3.92;;;14.80;99.90;;;;;;4996094;28;20031;-66
2023/03/02 08:06:07;;;;;;;7.22;4.25;;;14.80;99.90;;;;;;4983352;28;20058;-66
2023/03/02 08:08:34;;;;;;;6.20;4.00;;;14.80;99.90;;;;;;4979613;28;20054;-67
2023/03/02 08:11:11;;;;;;;7.50;4.30;;;14.80;99.90;;;;;;4999089;28;20066;-67
2023/03/02 08:13:37;;;;;;;6.70;4.28;;;14.80;99.90;;;;;;4997618;28;20034;-66
2023/03/02 08:16:05;;;;;;;7.68;4.30;;;14.70;99.90;;;;;;4993757;28;20085;-67
2023/03/02 08:18:32;;;;;;;7.65;4.47;;;14.70;99.90;;;;;;4978973;28;20454;-67
2023/03/02 08:20:59;;;;;;;8.23;4.40;;;14.70;99.90;;;;;;4983543;28;20027;-67
2023/03/02 08:23:26;;;;;;;6.53;4.32;;;14.70;99.90;;;;;;4995315;28;20033;-67
2023/03/02 08:25:53;;;;;;;8.38;4.35;;;14.70;99.90;;;;;;4983021;28;20126;-66
2023/03/02 08:28:20;;;;;;;7.43;4.40;;;14.70;99.90;;;;;;4979445;28;20081;-66
2023/03/02 08:30:57;;;;;;;7.28;4.55;;;14.70;99.90;;;;;;4985752;28;20035;-66
2023/03/02 08:33:23;;;;;;;8.18;4.78;;;14.70;99.90;;;;;;4980072;28;20518;-67
2023/03/02 08:36:02;;;;;;;7.55;4.68;;;14.70;99.90;;;;;;4982567;28;20039;-67
2023/03/02 08:38:28;;;;;;;7.70;4.35;;;14.70;99.90;;;;;;4976778;28;20421;-67
2023/03/02 08:40:55;;;;;;;7.68;5.00;;;14.70;99.90;;;;;;4979003;28;20418;-66
2023/03/02 08:43:22;;;;;;;10.25;5.13;;;14.70;99.90;;;;;;4980819;28;20327;-66
2023/03/02 08:45:58;;;;;;;14.05;5.75;;;14.70;99.90;;;;;;4980049;28;20038;-67
2023/03/02 08:48:25;;;;;;;9.73;4.75;;;14.70;99.90;;;;;;4988082;28;20035;-67
2023/03/02 08:51:03;;;;;;;15.73;5.05;;;14.70;99.90;;;;;;4981268;28;20022;-67
2023/03/02 08:53:32;;;;;;;12.38;5.03;;;14.70;99.90;;;;;;4976982;28;20035;-67
2023/03/02 08:55:58;;;;;;;11.57;5.05;;;14.70;99.90;;;;;;4981218;28;20069;-67
2023/03/02 08:58:24;;;;;;;11.68;4.75;;;14.70;99.90;;;;;;5007546;28;20023;-66
2023/03/02 09:00:50;;;;;;;14.30;5.55;;;14.70;99.90;;;;;;4977483;28;20081;-66
2023/03/02 09:03:16;;;;;;;9.15;5.30;;;14.70;99.90;;;;;;4995902;28;20030;-66
2023/03/02 09:05:42;;;;;;;12.43;5.30;;;14.70;99.90;;;;;;4997846;28;20468;-66
2023/03/02 09:08:08;;;;;;;12.63;5.68;;;14.70;99.90;;;;;;4997115;28;20113;-68
2023/03/02 09:10:34;;;;;;;10.85;5.47;;;14.70;99.90;;;;;;4987925;28;20040;-67
2023/03/02 09:13:01;;;;;;;11.20;5.07;;;14.70;99.90;;;;;;4997814;28;20034;-67
2023/03/02 09:15:26;;;;;;;7.85;4.82;;;14.70;99.90;;;;;;4997851;28;20027;-68
2023/03/02 09:17:52;;;;;;;11.65;4.93;;;14.70;99.90;;;;;;4997567;28;20059;-67
2023/03/02 09:20:18;;;;;;;11.38;5.25;;;14.70;99.90;;;;;;4997669;28;20050;-67
2023/03/02 09:22:49;;;;;;;9.75;5.35;;;14.70;99.90;;;;;;4996958;28;20038;-67
2023/03/02 09:25:17;;;;;;;11.52;5.45;;;14.80;99.90;;;;;;4996004;28;20034;-67
2023/03/02 09:27:44;;;;;;;11.77;4.90;;;14.70;99.90;;;;;;4997369;28;20149;-67
2023/03/02 09:30:10;;;;;;;13.10;5.20;;;14.80;99.90;;;;;;4997378;28;20064;-67
2023/03/02 09:32:36;;;;;;;9.25;4.80;;;14.80;99.90;;;;;;4997108;28;20065;-67
2023/03/02 09:35:03;;;;;;;9.30;5.55;;;14.80;99.90;;;;;;4996446;28;20058;-67
2023/03/02 09:37:29;;;;;;;8.65;4.50;;;14.80;99.90;;;;;;4997097;28;20030;-67
2023/03/02 09:39:55;;;;;;;9.82;4.95;;;14.80;99.90;;;;;;4996413;28;20326;-67
2023/03/02 09:42:49;;;;;;;7.85;4.60;;;14.80;99.90;;;;;;4997246;28;20342;-67
2023/03/02 09:45:34;;;;;;;13.27;5.60;;;14.80;99.90;;;;;;4995006;28;20042;-67
2023/03/02 09:48:13;;;;;;;9.07;4.65;;;14.80;99.90;;;;;;4997241;28;20039;-67
2023/03/02 09:51:04;;;;;;;6.68;4.75;;;14.90;99.90;;;;;;4996919;28;20113;-67
2023/03/02 09:54:00;;;;;;;9.13;5.03;;;14.90;99.90;;;;;;4994526;28;20417;-67
2023/03/02 09:56:26;;;;;;;10.70;4.90;;;15.00;99.90;;;;;;5012532;28;20031;-67
2023/03/02 09:59:09;;;;;;;9.40;5.22;;;14.90;99.90;;;;;;4996678;28;20034;-67
2023/03/02 10:01:44;;;;;;;10.63;5.30;;;15.00;99.90;;;;;;4992587;28;20023;-67
2023/03/02 10:04:17;;;;;;;8.90;5.10;;;15.00;99.90;;;;;;4992622;28;20034;-67
2023/03/02 10:06:44;;;;;;;7.57;4.75;;;15.00;99.90;;;;;;4977443;28;20022;-67
2023/03/02 10:09:10;;;;;;;8.00;4.93;;;15.00;99.90;;;;;;4984504;28;20389;-68
2023/03/02 10:12:01;;;;;;;9.70;5.00;;;15.00;99.90;;;;;;4988818;28;20073;-68
2023/03/02 10:14:40;;;;;;;8.95;5.03;;;15.00;99.90;;;;;;4996108;28;20018;-67
2023/03/02 10:17:28;;;;;;;11.32;5.57;;;15.10;99.90;;;;;;4996665;28;20027;-68
2023/03/02 10:20:07;;;;;;;7.45;4.63;;;15.10;99.90;;;;;;4996407;28;20026;-68
2023/03/02 10:22:40;;;;;;;8.77;5.20;;;15.10;99.90;;;;;;4996283;28;20027;-68
2023/03/02 10:25:38;;;;;;;8.63;4.75;;;15.10;99.90;;;;;;4986492;28;20031;-67
2023/03/02 10:28:46;;;;;;;10.05;5.00;;;15.10;99.90;;;;;;4986082;28;20133;-66
2023/03/02 10:31:29;;;;;;;8.98;4.57;;;15.10;99.90;;;;;;4991807;28;20121;-66
2023/03/02 10:33:56;;;;;;;8.10;4.72;;;15.10;99.90;;;;;;4989568;28;20378;-68
2023/03/02 10:36:34;;;;;;;9.45;5.00;;;15.20;99.90;;;;;;4995926;28;20034;-68
2023/03/02 10:39:01;;;;;;;8.18;4.50;;;15.20;99.90;;;;;;4995077;28;20053;-67
2023/03/02 10:41:39;;;;;;;10.38;4.78;;;15.20;99.90;;;;;;4996547;28;20033;-70
2023/03/02 10:44:15;;;;;;;9.50;4.60;;;15.20;99.90;;;;;;4996196;28;20022;-67
2023/03/02 10:46:43;;;;;;;10.18;4.93;;;15.30;99.90;;;;;;4995993;28;20100;-67
2023/03/02 10:49:28;;;;;;;10.27;5.60;;;15.20;99.90;;;;;;4995053;28;20065;-66
2023/03/02 10:52:15;;;;;;;8.52;5.00;;;15.30;99.90;;;;;;4996041;28;20110;-67
2023/03/02 10:54:41;;;;;;;8.85;4.82;;;15.30;99.90;;;;;;4977756;28;20077;-66
2023/03/02 10:57:40;;;;;;;8.00;5.10;;;15.30;99.90;;;;;;4979578;28;20046;-66
2023/03/02 11:00:10;;;;;;;18.20;12.60;;;15.30;99.90;;;;;;4934793;28;20038;-69
2023/03/02 11:02:36;;;;;;;12.50;7.03;;;15.40;99.90;;;;;;4991150;28;20026;-68
2023/03/02 11:05:23;;;;;;;9.02;4.75;;;15.70;99.90;;;;;;4991443;28;20039;-66
2023/03/02 11:07:56;;;;;;;8.35;4.80;;;15.90;99.90;;;;;;4995684;28;20027;-67
2023/03/02 11:10:26;;;;;;;11.52;5.22;;;16.00;99.90;;;;;;4994513;28;20038;-65
2023/03/02 11:12:52;;;;;;;10.73;4.97;;;15.90;99.90;;;;;;4995704;28;20041;-66
2023/03/02 11:15:41;;;;;;;8.15;4.70;;;15.90;99.90;;;;;;4994475;28;20468;-65
2023/03/02 11:18:23;;;;;;;9.23;5.13;;;15.90;99.90;;;;;;4994629;28;20035;-65
2023/03/02 11:20:53;;;;;;;9.50;4.60;;;15.90;99.90;;;;;;4984730;28;20149;-65
2023/03/02 11:23:38;;;;;;;8.98;4.57;;;15.90;99.90;;;;;;4975310;28;20430;-65
2023/03/02 11:26:23;;;;;;;9.57;5.05;;;15.90;99.90;;;;;;4977639;28;20051;-65
2023/03/02 11:28:52;;;;;;;10.60;5.13;;;15.90;99.90;;;;;;4977232;28;20034;-66
2023/03/02 11:31:32;;;;;;;10.70;5.25;;;15.90;99.90;;;;;;4979529;28;20030;-65
2023/03/02 11:34:24;;;;;;;10.30;5.15;;;15.90;99.90;;;;;;4982406;28;20448;-64
2023/03/02 11:37:13;;;;;;;8.68;4.70;;;15.90;99.90;;;;;;4989933;28;20031;-65
2023/03/02 11:39:48;;;;;;;9.45;4.88;;;15.90;99.90;;;;;;4975530;28;20042;-65
2023/03/02 11:42:24;;;;;;;9.57;4.93;;;15.90;99.90;;;;;;4982709;28;20478;-66
2023/03/02 11:44:50;;;;;;;9.38;5.68;;;15.90;99.90;;;;;;4981034;28;20077;-65
2023/03/02 11:47:18;;;;;;;10.23;4.95;;;15.90;99.90;;;;;;4983408;28;20038;-65
2023/03/02 11:49:55;;;;;;;9.52;4.57;;;15.90;99.90;;;;;;4995790;28;20418;-68
2023/03/02 11:52:26;;;;;;;9.73;4.85;;;15.90;99.90;;;;;;4987108;28;20141;-66
2023/03/02 11:55:12;;;;;;;7.93;5.07;;;15.90;99.90;;;;;;4999157;28;20080;-66
2023/03/02 11:57:47;;;;;;;9.52;4.90;;;15.90;99.90;;;;;;4998129;28;20438;-66
2023/03/02 12:00:31;;;;;;;10.38;5.57;;;15.90;99.90;;;;;;4998734;28;20022;-68
2023/03/02 12:03:25;;;;;;;10.52;5.00;;;15.90;99.90;;;;;;4998215;28;20146;-65
2023/03/02 12:05:51;;;;;;;8.70;5.13;;;15.90;99.90;;;;;;4989142;28;20132;-68
2023/03/02 12:08:20;;;;;;;14.07;5.35;;;16.00;99.90;;;;;;4978381;28;20074;-69
2023/03/02 12:10:58;;;;;;;10.32;5.38;;;16.00;99.90;;;;;;4987546;28;20032;-70
2023/03/02 12:13:27;;;;;;;14.25;5.47;;;16.00;99.90;;;;;;5014281;28;20061;-68
2023/03/02 12:15:57;;;;;;;12.88;5.45;;;16.00;99.90;;;;;;4998733;28;20153;-67
2023/03/02 12:18:23;;;;;;;11.73;5.18;;;16.10;99.90;;;;;;4998131;28;20031;-68
2023/03/02 12:21:12;;;;;;;9.20;5.45;;;16.10;99.90;;;;;;4998614;28;20045;-67
2023/03/02 12:23:50;;;;;;;27.52;21.13;;;16.10;99.90;;;;;;4977981;28;20031;-68
2023/03/02 12:26:19;;;;;;;13.35;8.68;;;16.20;99.90;;;;;;4984420;28;20037;-67
2023/03/02 12:29:08;;;;;;;11.25;7.25;;;16.50;99.90;;;;;;4996783;28;20034;-67
2023/03/02 12:31:47;;;;;;;11.70;6.55;;;16.70;99.90;;;;;;4991251;28;20053;-67
2023/03/02 12:34:32;;;;;;;10.60;6.10;;;16.70;99.90;;;;;;4997626;28;20026;-67
2023/03/02 12:37:27;;;;;;;13.73;5.90;;;16.70;99.90;;;;;;4980029;28;20037;-66
2023/03/02 12:40:12;;;;;;;11.93;6.10;;;16.80;99.90;;;;;;4982382;28;20327;-68
2023/03/02 12:43:00;;;;;;;24.00;19.98;;;16.80;99.90;;;;;;4997459;28;20073;-66
2023/03/02 12:45:47;;;;;;;13.75;8.55;;;16.90;99.90;;;;;;4985560;28;20042;-66
2023/03/02 12:48:34;;;;;;;14.70;6.10;;;17.00;99.90;;;;;;4979407;28;20153;-66
2023/03/02 12:51:03;;;;;;;11.63;6.70;;;17.10;99.90;;;;;;4980352;28;20026;-66
2023/03/02 12:53:30;;;;;;;10.43;6.25;;;17.10;99.90;;;;;;4997256;28;20387;-67
2023/03/02 12:55:56;;;;;;;9.73;6.07;;;17.10;99.90;;;;;;4984001;28;20034;-66
2023/03/02 12:58:27;;;;;;;13.93;6.88;;;17.10;99.90;;;;;;4977919;28;20042;-66
2023/03/02 13:00:59;;;;;;;11.75;6.13;;;17.10;99.90;;;;;;4978406;28;20441;-66
2023/03/02 13:03:28;;;;;;;12.27;6.78;;;17.00;99.90;;;;;;4997059;28;20034;-66